sensor_id;sensor_type;location;lat;lon;timestamp;pressure;altitude;pressure_sealevel;temperature;humidity
36234;BME280;43467;50.890;5.982;2023-03-22T00:02:07;99703.94;;;12.62;73.68
36234;BME280;43467;50.890;5.982;2023-03-22T00:04:33;99697.22;;;12.56;73.59
36234;BME280;43467;50.890;5.982;2023-03-22T00:06:58;99695.13;;;12.61;73.58
36234;BME280;43467;50.890;5.982;2023-03-22T00:09:23;99691.03;;;12.55;73.54
36234;BME280;43467;50.890;5.982;2023-03-22T00:11:49;99688.31;;;12.57;73.72
36234;BME280;43467;50.890;5.982;2023-03-22T00:14:16;99684.13;;;12.53;73.76
36234;BME280;43467;50.890;5.982;2023-03-22T00:16:42;99680.63;;;12.52;73.84
36234;BME280;43467;50.890;5.982;2023-03-22T00:19:09;99675.22;;;12.54;73.42
36234;BME280;43467;50.890;5.982;2023-03-22T00:21:34;99667.34;;;12.52;73.71
36234;BME280;43467;50.890;5.982;2023-03-22T00:24:00;99673.03;;;12.61;73.36
36234;BME280;43467;50.890;5.982;2023-03-22T00:26:25;99669.25;;;12.50;73.70
36234;BME280;43467;50.890;5.982;2023-03-22T00:28:51;99665.25;;;12.43;74.12
36234;BME280;43467;50.890;5.982;2023-03-22T00:31:16;99659.78;;;12.46;73.97
36234;BME280;43467;50.890;5.982;2023-03-22T00:33:41;99657.88;;;12.48;73.70
36234;BME280;43467;50.890;5.982;2023-03-22T00:36:09;99628.56;;;12.36;73.76
36234;BME280;43467;50.890;5.982;2023-03-22T00:38:35;99649.69;;;12.51;73.78
36234;BME280;43467;50.890;5.982;2023-03-22T00:41:09;99647.34;;;12.47;73.65
36234;BME280;43467;50.890;5.982;2023-03-22T00:43:35;99650.84;;;12.47;73.89
36234;BME280;43467;50.890;5.982;2023-03-22T00:46:01;99652.75;;;12.45;73.85
36234;BME280;43467;50.890;5.982;2023-03-22T00:48:26;99648.28;;;12.46;74.01
36234;BME280;43467;50.890;5.982;2023-03-22T00:50:52;99645.34;;;12.36;74.46
36234;BME280;43467;50.890;5.982;2023-03-22T00:53:17;99644.69;;;12.33;74.77
36234;BME280;43467;50.890;5.982;2023-03-22T00:55:42;99649.63;;;12.25;74.88
36234;BME280;43467;50.890;5.982;2023-03-22T00:58:08;99648.50;;;12.29;75.08
36234;BME280;43467;50.890;5.982;2023-03-22T01:00:33;99637.94;;;12.27;74.74
36234;BME280;43467;50.890;5.982;2023-03-22T01:02:59;99640.53;;;12.29;74.96
36234;BME280;43467;50.890;5.982;2023-03-22T01:05:30;99621.28;;;12.25;75.08
36234;BME280;43467;50.890;5.982;2023-03-22T01:07:59;99617.09;;;12.35;74.79
36234;BME280;43467;50.890;5.982;2023-03-22T01:10:26;99617.66;;;12.40;74.39
36234;BME280;43467;50.890;5.982;2023-03-22T01:12:52;99612.75;;;12.34;74.79
36234;BME280;43467;50.890;5.982;2023-03-22T01:15:18;99611.31;;;12.29;74.67
36234;BME280;43467;50.890;5.982;2023-03-22T01:17:43;99614.44;;;12.35;74.79
36234;BME280;43467;50.890;5.982;2023-03-22T01:20:09;99610.97;;;12.35;74.73
36234;BME280;43467;50.890;5.982;2023-03-22T01:22:35;99604.78;;;12.34;74.50
36234;BME280;43467;50.890;5.982;2023-03-22T01:25:01;99605.66;;;12.21;75.13
36234;BME280;43467;50.890;5.982;2023-03-22T01:27:27;99596.81;;;12.20;75.02
36234;BME280;43467;50.890;5.982;2023-03-22T01:29:52;99598.44;;;12.23;75.06
36234;BME280;43467;50.890;5.982;2023-03-22T01:32:17;99592.56;;;12.18;75.20
36234;BME280;43467;50.890;5.982;2023-03-22T01:34:43;99587.75;;;12.10;75.65
36234;BME280;43467;50.890;5.982;2023-03-22T01:37:09;99578.06;;;12.09;75.17
36234;BME280;43467;50.890;5.982;2023-03-22T01:39:35;99589.63;;;12.08;75.44
36234;BME280;43467;50.890;5.982;2023-03-22T01:42:01;99590.56;;;12.07;75.64
36234;BME280;43467;50.890;5.982;2023-03-22T01:44:28;99576.56;;;12.05;75.47
36234;BME280;43467;50.890;5.982;2023-03-22T01:46:54;99579.22;;;12.05;75.56
36234;BME280;43467;50.890;5.982;2023-03-22T01:49:29;99573.25;;;12.01;75.85
36234;BME280;43467;50.890;5.982;2023-03-22T01:52:03;99565.16;;;12.03;75.65
36234;BME280;43467;50.890;5.982;2023-03-22T01:56:55;99565.16;;;12.03;75.70
36234;BME280;43467;50.890;5.982;2023-03-22T01:59:21;99554.75;;;12.00;75.87
36234;BME280;43467;50.890;5.982;2023-03-22T02:01:48;99554.97;;;11.97;75.46
36234;BME280;43467;50.890;5.982;2023-03-22T02:04:19;99549.44;;;12.00;75.82
36234;BME280;43467;50.890;5.982;2023-03-22T02:06:49;99545.84;;;12.01;75.78
36234;BME280;43467;50.890;5.982;2023-03-22T02:09:15;99538.84;;;12.00;75.75
36234;BME280;43467;50.890;5.982;2023-03-22T02:11:48;99544.16;;;12.00;75.75
36234;BME280;43467;50.890;5.982;2023-03-22T02:14:37;99541.41;;;12.01;75.84
36234;BME280;43467;50.890;5.982;2023-03-22T02:19:58;99526.50;;;11.99;75.94
36234;BME280;43467;50.890;5.982;2023-03-22T02:31:07;99509.19;;;11.93;76.02
36234;BME280;43467;50.890;5.982;2023-03-22T02:41:58;99513.06;;;11.88;76.23
36234;BME280;43467;50.890;5.982;2023-03-22T02:44:50;99522.56;;;11.92;76.22
36234;BME280;43467;50.890;5.982;2023-03-22T02:50:39;99508.06;;;11.97;75.82
36234;BME280;43467;50.890;5.982;2023-03-22T02:58:29;99507.78;;;11.88;76.00
36234;BME280;43467;50.890;5.982;2023-03-22T03:01:04;99507.41;;;11.94;75.96
36234;BME280;43467;50.890;5.982;2023-03-22T03:03:32;99514.22;;;11.84;76.08
36234;BME280;43467;50.890;5.982;2023-03-22T03:06:05;99503.31;;;11.74;76.58
36234;BME280;43467;50.890;5.982;2023-03-22T03:08:35;99505.97;;;11.74;76.51
36234;BME280;43467;50.890;5.982;2023-03-22T03:11:02;99495.19;;;11.77;76.65
36234;BME280;43467;50.890;5.982;2023-03-22T03:13:27;99504.75;;;11.80;76.30
36234;BME280;43467;50.890;5.982;2023-03-22T03:15:57;99503.44;;;11.73;76.86
36234;BME280;43467;50.890;5.982;2023-03-22T03:26:32;99491.78;;;11.75;76.59
36234;BME280;43467;50.890;5.982;2023-03-22T03:29:13;99486.25;;;11.78;76.68
36234;BME280;43467;50.890;5.982;2023-03-22T03:31:49;99486.47;;;11.75;76.81
36234;BME280;43467;50.890;5.982;2023-03-22T03:34:55;99492.53;;;11.77;76.87
36234;BME280;43467;50.890;5.982;2023-03-22T03:37:26;99487.69;;;11.70;77.02
36234;BME280;43467;50.890;5.982;2023-03-22T03:40:01;99493.69;;;11.73;76.90
36234;BME280;43467;50.890;5.982;2023-03-22T03:42:30;99494.53;;;11.74;76.63
36234;BME280;43467;50.890;5.982;2023-03-22T03:44:56;99486.66;;;11.72;76.88
36234;BME280;43467;50.890;5.982;2023-03-22T03:47:23;99480.00;;;11.65;76.67
36234;BME280;43467;50.890;5.982;2023-03-22T03:49:49;99483.16;;;11.72;76.52
36234;BME280;43467;50.890;5.982;2023-03-22T03:52:15;99470.06;;;11.69;76.60
36234;BME280;43467;50.890;5.982;2023-03-22T03:54:40;99487.97;;;11.65;76.69
36234;BME280;43467;50.890;5.982;2023-03-22T03:57:06;99466.00;;;11.49;76.97
36234;BME280;43467;50.890;5.982;2023-03-22T03:59:32;99459.16;;;11.59;76.43
36234;BME280;43467;50.890;5.982;2023-03-22T04:01:57;99475.16;;;11.57;77.24
36234;BME280;43467;50.890;5.982;2023-03-22T04:04:25;99472.50;;;11.57;77.33
36234;BME280;43467;50.890;5.982;2023-03-22T04:06:52;99467.50;;;11.67;76.84
36234;BME280;43467;50.890;5.982;2023-03-22T04:09:18;99472.06;;;11.65;77.06
36234;BME280;43467;50.890;5.982;2023-03-22T04:11:44;99468.44;;;11.52;77.20
36234;BME280;43467;50.890;5.982;2023-03-22T04:14:09;99477.63;;;11.60;77.16
36234;BME280;43467;50.890;5.982;2023-03-22T04:16:35;99472.50;;;11.57;77.24
36234;BME280;43467;50.890;5.982;2023-03-22T04:19:00;99472.34;;;11.60;77.27
36234;BME280;43467;50.890;5.982;2023-03-22T04:21:25;99466.75;;;11.65;77.05
36234;BME280;43467;50.890;5.982;2023-03-22T04:23:51;99460.75;;;11.61;77.09
36234;BME280;43467;50.890;5.982;2023-03-22T04:26:16;99464.75;;;11.54;77.56
36234;BME280;43467;50.890;5.982;2023-03-22T04:28:42;99460.38;;;11.53;77.50
36234;BME280;43467;50.890;5.982;2023-03-22T04:31:07;99470.53;;;11.47;77.92
36234;BME280;43467;50.890;5.982;2023-03-22T04:33:32;99465.31;;;11.45;78.29
36234;BME280;43467;50.890;5.982;2023-03-22T04:36:04;99467.19;;;11.57;77.44
36234;BME280;43467;50.890;5.982;2023-03-22T04:38:31;99467.50;;;11.53;77.79
36234;BME280;43467;50.890;5.982;2023-03-22T04:40:57;99459.84;;;11.48;77.95
36234;BME280;43467;50.890;5.982;2023-03-22T04:43:22;99452.25;;;11.42;77.93
36234;BME280;43467;50.890;5.982;2023-03-22T04:45:48;99461.44;;;11.37;78.71
36234;BME280;43467;50.890;5.982;2023-03-22T04:48:13;99464.66;;;11.42;78.08
36234;BME280;43467;50.890;5.982;2023-03-22T04:50:38;99451.13;;;11.46;78.10
36234;BME280;43467;50.890;5.982;2023-03-22T04:53:05;99450.91;;;11.49;78.09
36234;BME280;43467;50.890;5.982;2023-03-22T04:55:30;99449.31;;;11.47;77.92
36234;BME280;43467;50.890;5.982;2023-03-22T04:57:58;99458.88;;;11.49;78.10
36234;BME280;43467;50.890;5.982;2023-03-22T05:00:24;99450.72;;;11.38;78.44
36234;BME280;43467;50.890;5.982;2023-03-22T05:02:50;99460.13;;;11.44;78.33
36234;BME280;43467;50.890;5.982;2023-03-22T05:05:16;99462.38;;;11.36;78.46
36234;BME280;43467;50.890;5.982;2023-03-22T05:07:41;99467.13;;;11.45;78.36
36234;BME280;43467;50.890;5.982;2023-03-22T05:10:07;99468.28;;;11.41;78.11
36234;BME280;43467;50.890;5.982;2023-03-22T05:12:33;99455.66;;;11.30;78.14
36234;BME280;43467;50.890;5.982;2023-03-22T05:14:58;99461.13;;;11.41;78.03
36234;BME280;43467;50.890;5.982;2023-03-22T05:17:25;99471.09;;;11.38;78.34
36234;BME280;43467;50.890;5.982;2023-03-22T05:19:50;99466.44;;;11.41;78.17
36234;BME280;43467;50.890;5.982;2023-03-22T05:22:16;99464.19;;;11.35;78.36
36234;BME280;43467;50.890;5.982;2023-03-22T05:24:43;99473.84;;;11.36;78.55
36234;BME280;43467;50.890;5.982;2023-03-22T05:27:08;99467.19;;;11.29;78.63
36234;BME280;43467;50.890;5.982;2023-03-22T05:29:35;99449.69;;;11.27;78.50
36234;BME280;43467;50.890;5.982;2023-03-22T05:32:02;99464.91;;;11.37;78.23
36234;BME280;43467;50.890;5.982;2023-03-22T05:34:27;99463.13;;;11.38;78.42
36234;BME280;43467;50.890;5.982;2023-03-22T05:37:00;99461.88;;;11.29;78.51
36234;BME280;43467;50.890;5.982;2023-03-22T05:39:26;99468.91;;;11.30;78.27
36234;BME280;43467;50.890;5.982;2023-03-22T05:41:51;99453.84;;;11.31;78.58
36234;BME280;43467;50.890;5.982;2023-03-22T05:44:16;99449.22;;;11.34;78.27
36234;BME280;43467;50.890;5.982;2023-03-22T05:46:42;99454.31;;;11.37;77.62
36234;BME280;43467;50.890;5.982;2023-03-22T05:49:07;99456.03;;;11.38;77.67
36234;BME280;43467;50.890;5.982;2023-03-22T05:51:33;99452.34;;;11.27;77.73
36234;BME280;43467;50.890;5.982;2023-03-22T05:54:06;99459.63;;;11.37;77.26
36234;BME280;43467;50.890;5.982;2023-03-22T05:56:31;99456.59;;;11.29;77.64
36234;BME280;43467;50.890;5.982;2023-03-22T05:58:57;99463.72;;;11.29;77.37
36234;BME280;43467;50.890;5.982;2023-03-22T06:01:22;99468.91;;;11.30;77.31
36234;BME280;43467;50.890;5.982;2023-03-22T06:03:49;99472.03;;;11.23;77.43
36234;BME280;43467;50.890;5.982;2023-03-22T06:06:15;99466.91;;;11.34;77.01
36234;BME280;43467;50.890;5.982;2023-03-22T06:08:40;99458.69;;;11.24;77.49
36234;BME280;43467;50.890;5.982;2023-03-22T06:11:06;99463.88;;;11.26;76.94
36234;BME280;43467;50.890;5.982;2023-03-22T06:13:32;99462.00;;;11.28;77.07
36234;BME280;43467;50.890;5.982;2023-03-22T06:15:59;99455.25;;;11.22;77.04
36234;BME280;43467;50.890;5.982;2023-03-22T06:18:26;99448.47;;;11.32;76.71
36234;BME280;43467;50.890;5.982;2023-03-22T06:20:51;99449.03;;;11.37;76.31
36234;BME280;43467;50.890;5.982;2023-03-22T06:23:16;99440.69;;;11.29;75.95
36234;BME280;43467;50.890;5.982;2023-03-22T06:25:42;99448.09;;;11.38;76.01
36234;BME280;43467;50.890;5.982;2023-03-22T06:28:07;99443.63;;;11.39;75.79
36234;BME280;43467;50.890;5.982;2023-03-22T06:30:33;99448.09;;;11.38;75.56
36234;BME280;43467;50.890;5.982;2023-03-22T06:32:58;99450.66;;;11.40;75.36
36234;BME280;43467;50.890;5.982;2023-03-22T06:35:28;99446.56;;;11.34;75.63
36234;BME280;43467;50.890;5.982;2023-03-22T06:37:54;99448.63;;;11.29;75.81
36234;BME280;43467;50.890;5.982;2023-03-22T06:40:19;99456.03;;;11.38;75.39
36234;BME280;43467;50.890;5.982;2023-03-22T06:42:44;99443.44;;;11.28;75.35
36234;BME280;43467;50.890;5.982;2023-03-22T06:45:10;99444.97;;;11.32;75.20
36234;BME280;43467;50.890;5.982;2023-03-22T06:47:38;99446.75;;;11.31;75.27
36234;BME280;43467;50.890;5.982;2023-03-22T06:50:04;99443.06;;;11.34;75.17
36234;BME280;43467;50.890;5.982;2023-03-22T06:52:30;99455.38;;;11.35;74.52
36234;BME280;43467;50.890;5.982;2023-03-22T06:54:55;99450.84;;;11.37;74.87
36234;BME280;43467;50.890;5.982;2023-03-22T06:57:21;99458.88;;;11.35;74.78
36234;BME280;43467;50.890;5.982;2023-03-22T06:59:46;99463.41;;;11.33;74.60
36234;BME280;43467;50.890;5.982;2023-03-22T07:02:11;99457.75;;;11.39;74.66
36234;BME280;43467;50.890;5.982;2023-03-22T07:04:37;99454.72;;;11.31;75.26
36234;BME280;43467;50.890;5.982;2023-03-22T07:07:02;99437.00;;;11.17;75.24
36234;BME280;43467;50.890;5.982;2023-03-22T07:09:28;99457.28;;;11.33;75.35
36234;BME280;43467;50.890;5.982;2023-03-22T07:11:53;99463.41;;;11.33;75.16
36234;BME280;43467;50.890;5.982;2023-03-22T07:14:19;99458.69;;;11.38;74.94
36234;BME280;43467;50.890;5.982;2023-03-22T07:16:44;99456.50;;;11.31;74.83
36234;BME280;43467;50.890;5.982;2023-03-22T07:19:09;99459.06;;;11.32;75.03
36234;BME280;43467;50.890;5.982;2023-03-22T07:21:36;99461.25;;;11.40;74.71
36234;BME280;43467;50.890;5.982;2023-03-22T07:24:01;99462.56;;;11.47;74.71
36234;BME280;43467;50.890;5.982;2023-03-22T07:26:27;99469.78;;;11.45;74.65
36234;BME280;43467;50.890;5.982;2023-03-22T07:28:55;99475.16;;;11.43;74.35
36234;BME280;43467;50.890;5.982;2023-03-22T07:31:20;99472.72;;;11.40;74.44
36234;BME280;43467;50.890;5.982;2023-03-22T07:33:46;99466.28;;;11.44;74.47
36234;BME280;43467;50.890;5.982;2023-03-22T07:36:13;99462.78;;;11.44;74.18
36234;BME280;43467;50.890;5.982;2023-03-22T07:38:38;99464.47;;;11.59;73.58
36234;BME280;43467;50.890;5.982;2023-03-22T07:41:04;99464.47;;;11.59;73.21
36234;BME280;43467;50.890;5.982;2023-03-22T07:43:30;99466.31;;;11.73;72.98
36234;BME280;43467;50.890;5.982;2023-03-22T07:45:56;99469.81;;;11.73;72.49
36234;BME280;43467;50.890;5.982;2023-03-22T07:48:21;99464.19;;;11.63;72.64
36234;BME280;43467;50.890;5.982;2023-03-22T07:50:47;99473.06;;;11.62;72.65
36234;BME280;43467;50.890;5.982;2023-03-22T07:53:13;99467.13;;;11.59;72.50
36234;BME280;43467;50.890;5.982;2023-03-22T07:55:39;99475.38;;;11.69;72.08
36234;BME280;43467;50.890;5.982;2023-03-22T07:58:06;99477.38;;;11.79;71.99
36234;BME280;43467;50.890;5.982;2023-03-22T08:00:32;99455.47;;;11.61;70.82
36234;BME280;43467;50.890;5.982;2023-03-22T08:02:58;99480.41;;;11.73;70.71
36234;BME280;43467;50.890;5.982;2023-03-22T08:05:24;99479.91;;;11.66;70.71
36234;BME280;43467;50.890;5.982;2023-03-22T08:07:49;99491.97;;;11.72;70.93
36234;BME280;43467;50.890;5.982;2023-03-22T08:10:16;99485.13;;;11.68;70.21
36234;BME280;43467;50.890;5.982;2023-03-22T08:12:42;99476.38;;;11.66;70.22
36234;BME280;43467;50.890;5.982;2023-03-22T08:15:08;99487.53;;;11.73;70.23
36234;BME280;43467;50.890;5.982;2023-03-22T08:17:33;99485.81;;;11.72;69.98
36234;BME280;43467;50.890;5.982;2023-03-22T08:19:59;99483.63;;;11.78;69.46
36234;BME280;43467;50.890;5.982;2023-03-22T08:22:24;99477.94;;;11.84;69.21
36234;BME280;43467;50.890;5.982;2023-03-22T08:24:54;99482.97;;;11.75;69.27
36234;BME280;43467;50.890;5.982;2023-03-22T08:27:19;99481.94;;;11.77;69.46
36234;BME280;43467;50.890;5.982;2023-03-22T08:29:45;99474.34;;;11.85;68.94
36234;BME280;43467;50.890;5.982;2023-03-22T08:32:13;99486.66;;;11.72;67.35
36234;BME280;43467;50.890;5.982;2023-03-22T08:34:40;99483.03;;;11.87;67.57
36234;BME280;43467;50.890;5.982;2023-03-22T08:37:07;99476.31;;;11.96;66.68
36234;BME280;43467;50.890;5.982;2023-03-22T08:39:33;99473.84;;;11.93;66.13
36234;BME280;43467;50.890;5.982;2023-03-22T08:41:59;99468.81;;;12.02;66.00
36234;BME280;43467;50.890;5.982;2023-03-22T08:44:24;99460.25;;;12.11;65.93
36234;BME280;43467;50.890;5.982;2023-03-22T08:46:50;99479.50;;;12.15;65.58
36234;BME280;43467;50.890;5.982;2023-03-22T08:49:16;99479.50;;;12.15;66.33
36234;BME280;43467;50.890;5.982;2023-03-22T08:51:41;99485.78;;;12.00;66.06
36234;BME280;43467;50.890;5.982;2023-03-22T08:54:08;99462.47;;;12.05;65.95
36234;BME280;43467;50.890;5.982;2023-03-22T08:56:33;99489.78;;;11.93;65.80
36234;BME280;43467;50.890;5.982;2023-03-22T08:59:06;99483.81;;;11.89;66.11
36234;BME280;43467;50.890;5.982;2023-03-22T09:01:33;99471.00;;;11.96;66.07
36234;BME280;43467;50.890;5.982;2023-03-22T09:03:58;99470.22;;;12.08;66.11
36234;BME280;43467;50.890;5.982;2023-03-22T09:06:24;99472.19;;;12.19;65.87
36234;BME280;43467;50.890;5.982;2023-03-22T09:08:51;99465.84;;;12.21;64.30
36234;BME280;43467;50.890;5.982;2023-03-22T09:11:17;99461.28;;;12.23;63.42
36234;BME280;43467;50.890;5.982;2023-03-22T09:13:43;99458.81;;;12.20;63.69
36234;BME280;43467;50.890;5.982;2023-03-22T09:16:09;99451.56;;;12.36;62.98
36234;BME280;43467;50.890;5.982;2023-03-22T09:18:36;99468.00;;;12.29;62.54
36234;BME280;43467;50.890;5.982;2023-03-22T09:21:02;99466.47;;;12.39;62.44
36234;BME280;43467;50.890;5.982;2023-03-22T09:23:27;99468.34;;;12.37;63.19
36234;BME280;43467;50.890;5.982;2023-03-22T09:25:54;99466.25;;;12.42;62.52
36234;BME280;43467;50.890;5.982;2023-03-22T09:28:19;99465.09;;;12.46;62.49
36234;BME280;43467;50.890;5.982;2023-03-22T09:30:45;99465.19;;;12.44;62.75
36234;BME280;43467;50.890;5.982;2023-03-22T09:33:11;99470.28;;;12.35;62.33
36234;BME280;43467;50.890;5.982;2023-03-22T09:35:39;99440.56;;;12.42;62.44
36234;BME280;43467;50.890;5.982;2023-03-22T09:38:05;99434.09;;;12.46;62.33
36234;BME280;43467;50.890;5.982;2023-03-22T09:40:32;99447.25;;;12.48;62.49
36234;BME280;43467;50.890;5.982;2023-03-22T09:43:03;99450.84;;;12.74;62.62
36234;BME280;43467;50.890;5.982;2023-03-22T09:45:38;99467.84;;;12.84;62.21
36234;BME280;43467;50.890;5.982;2023-03-22T09:48:12;99469.56;;;12.85;62.07
36234;BME280;43467;50.890;5.982;2023-03-22T09:50:44;99452.94;;;12.69;61.69
36234;BME280;43467;50.890;5.982;2023-03-22T09:53:13;99461.78;;;12.69;62.03
36234;BME280;43467;50.890;5.982;2023-03-22T10:07:06;99447.91;;;12.91;60.78
36234;BME280;43467;50.890;5.982;2023-03-22T10:10:14;99452.25;;;12.79;60.18
36234;BME280;43467;50.890;5.982;2023-03-22T10:12:45;99460.88;;;12.83;60.46
36234;BME280;43467;50.890;5.982;2023-03-22T10:15:18;99459.16;;;12.82;59.85
36234;BME280;43467;50.890;5.982;2023-03-22T10:17:49;99449.59;;;12.79;59.68
36234;BME280;43467;50.890;5.982;2023-03-22T10:22:44;99448.56;;;13.07;59.34
36234;BME280;43467;50.890;5.982;2023-03-22T10:25:16;99435.78;;;12.87;59.11
36234;BME280;43467;50.890;5.982;2023-03-22T10:27:43;99452.59;;;12.87;59.32
36234;BME280;43467;50.890;5.982;2023-03-22T10:30:29;99446.19;;;12.90;59.07
36234;BME280;43467;50.890;5.982;2023-03-22T10:33:03;99437.69;;;12.85;59.18
36234;BME280;43467;50.890;5.982;2023-03-22T10:35:30;99438.34;;;13.01;59.27
36234;BME280;43467;50.890;5.982;2023-03-22T10:37:58;99431.53;;;12.97;58.74
36234;BME280;43467;50.890;5.982;2023-03-22T10:40:30;99430.88;;;12.81;58.80
36234;BME280;43467;50.890;5.982;2023-03-22T10:43:02;99430.25;;;12.90;58.99
36234;BME280;43467;50.890;5.982;2023-03-22T10:45:32;99441.72;;;12.78;57.99
36234;BME280;43467;50.890;5.982;2023-03-22T10:50:35;99439.91;;;12.78;58.82
36234;BME280;43467;50.890;5.982;2023-03-22T10:53:11;99443.53;;;12.77;59.09
36234;BME280;43467;50.890;5.982;2023-03-22T10:55:42;99436.09;;;12.82;58.75
36234;BME280;43467;50.890;5.982;2023-03-22T10:58:16;99439.59;;;12.83;58.71
36234;BME280;43467;50.890;5.982;2023-03-22T11:00:50;99446.19;;;12.90;58.71
36234;BME280;43467;50.890;5.982;2023-03-22T11:03:35;99440.50;;;12.96;58.58
36234;BME280;43467;50.890;5.982;2023-03-22T11:06:05;99427.94;;;12.98;58.40
36234;BME280;43467;50.890;5.982;2023-03-22T11:08:59;99424.94;;;12.90;58.99
36234;BME280;43467;50.890;5.982;2023-03-22T11:11:37;99438.66;;;13.09;58.83
36234;BME280;43467;50.890;5.982;2023-03-22T11:14:19;99435.66;;;13.28;58.67
36234;BME280;43467;50.890;5.982;2023-03-22T11:19:31;99436.16;;;13.33;58.65
36234;BME280;43467;50.890;5.982;2023-03-22T11:21:58;99424.88;;;13.29;58.75
36234;BME280;43467;50.890;5.982;2023-03-22T11:24:29;99434.34;;;13.33;58.30
36234;BME280;43467;50.890;5.982;2023-03-22T11:27:32;99437.00;;;13.33;59.04
36234;BME280;43467;50.890;5.982;2023-03-22T11:30:07;99433.63;;;13.31;58.85
36234;BME280;43467;50.890;5.982;2023-03-22T11:32:41;99436.28;;;13.31;59.13
36234;BME280;43467;50.890;5.982;2023-03-22T11:35:24;99436.59;;;13.39;59.16
36234;BME280;43467;50.890;5.982;2023-03-22T11:37:52;99435.09;;;13.48;59.36
36234;BME280;43467;50.890;5.982;2023-03-22T11:40:21;99426.69;;;13.41;59.65
36234;BME280;43467;50.890;5.982;2023-03-22T11:42:51;99431.47;;;13.49;59.62
36234;BME280;43467;50.890;5.982;2023-03-22T11:45:26;99427.13;;;13.48;58.95
36234;BME280;43467;50.890;5.982;2023-03-22T11:47:52;99423.19;;;13.41;58.89
36234;BME280;43467;50.890;5.982;2023-03-22T11:50:28;99417.75;;;13.30;59.47
36234;BME280;43467;50.890;5.982;2023-03-22T11:52:54;99428.53;;;13.28;59.36
36234;BME280;43467;50.890;5.982;2023-03-22T11:55:21;99419.88;;;13.37;60.01
36234;BME280;43467;50.890;5.982;2023-03-22T11:57:47;99419.38;;;13.32;60.19
36234;BME280;43467;50.890;5.982;2023-03-22T12:00:23;99413.63;;;13.38;59.32
36234;BME280;43467;50.890;5.982;2023-03-22T12:02:57;99411.19;;;13.35;59.82
36234;BME280;43467;50.890;5.982;2023-03-22T12:05:29;99397.03;;;13.35;59.75
36234;BME280;43467;50.890;5.982;2023-03-22T12:08:02;99429.34;;;13.29;59.40
36234;BME280;43467;50.890;5.982;2023-03-22T12:10:31;99405.00;;;13.35;59.54
36234;BME280;43467;50.890;5.982;2023-03-22T12:13:03;99400.22;;;13.40;59.57
36234;BME280;43467;50.890;5.982;2023-03-22T12:15:34;99412.66;;;13.39;59.40
36234;BME280;43467;50.890;5.982;2023-03-22T12:18:16;99405.72;;;13.49;59.39
36234;BME280;43467;50.890;5.982;2023-03-22T12:23:17;99405.41;;;13.54;59.19
36234;BME280;43467;50.890;5.982;2023-03-22T12:28:35;99403.81;;;13.52;59.54
36234;BME280;43467;50.890;5.982;2023-03-22T12:31:05;99390.22;;;13.56;59.67
36234;BME280;43467;50.890;5.982;2023-03-22T12:33:42;99390.59;;;13.63;59.33
36234;BME280;43467;50.890;5.982;2023-03-22T12:36:15;99389.44;;;13.67;59.20
36234;BME280;43467;50.890;5.982;2023-03-22T12:38:54;99397.31;;;13.68;59.66
36234;BME280;43467;50.890;5.982;2023-03-22T12:41:31;99402.41;;;13.71;59.12
36234;BME280;43467;50.890;5.982;2023-03-22T12:44:00;99383.69;;;13.73;59.30
36234;BME280;43467;50.890;5.982;2023-03-22T12:46:29;99396.09;;;13.85;59.18
36234;BME280;43467;50.890;5.982;2023-03-22T12:49:07;99389.91;;;13.84;59.43
36234;BME280;43467;50.890;5.982;2023-03-22T12:51:39;99381.28;;;13.93;59.03
36234;BME280;43467;50.890;5.982;2023-03-22T12:54:10;99375.31;;;13.90;59.21
36234;BME280;43467;50.890;5.982;2023-03-22T12:56:41;99372.03;;;13.86;58.85
36234;BME280;43467;50.890;5.982;2023-03-22T13:02:25;99372.59;;;14.03;58.05
36234;BME280;43467;50.890;5.982;2023-03-22T13:04:56;99377.34;;;14.10;58.03
36234;BME280;43467;50.890;5.982;2023-03-22T13:21:30;99360.66;;;13.84;58.90
36234;BME280;43467;50.890;5.982;2023-03-22T13:24:19;99364.75;;;14.01;58.89
36234;BME280;43467;50.890;5.982;2023-03-22T13:29:21;99365.19;;;13.95;59.43
36234;BME280;43467;50.890;5.982;2023-03-22T13:31:57;99363.13;;;13.98;59.18
36234;BME280;43467;50.890;5.982;2023-03-22T13:34:50;99359.75;;;13.96;59.32
36234;BME280;43467;50.890;5.982;2023-03-22T13:37:27;99369.03;;;13.91;59.48
36234;BME280;43467;50.890;5.982;2023-03-22T13:39:56;99370.53;;;13.82;60.06
36234;BME280;43467;50.890;5.982;2023-03-22T13:42:34;99359.28;;;13.79;60.50
36234;BME280;43467;50.890;5.982;2023-03-22T13:45:00;99359.41;;;13.77;60.20
36234;BME280;43467;50.890;5.982;2023-03-22T13:50:05;99343.69;;;13.62;60.48
36234;BME280;43467;50.890;5.982;2023-03-22T13:52:37;99362.59;;;13.70;61.14
36234;BME280;43467;50.890;5.982;2023-03-22T13:55:15;99353.91;;;13.68;60.49
36234;BME280;43467;50.890;5.982;2023-03-22T13:58:00;99359.94;;;13.70;60.91
36234;BME280;43467;50.890;5.982;2023-03-22T14:03:23;99341.31;;;13.70;61.09
36234;BME280;43467;50.890;5.982;2023-03-22T14:06:02;99339.41;;;13.72;61.54
36234;BME280;43467;50.890;5.982;2023-03-22T14:08:29;99339.19;;;13.75;61.56
36234;BME280;43467;50.890;5.982;2023-03-22T14:13:41;99336.41;;;13.76;61.62
36234;BME280;43467;50.890;5.982;2023-03-22T14:16:14;99319.66;;;13.63;61.64
36234;BME280;43467;50.890;5.982;2023-03-22T14:18:45;99330.69;;;13.70;61.87
36234;BME280;43467;50.890;5.982;2023-03-22T14:21:21;99338.34;;;13.62;62.09
36234;BME280;43467;50.890;5.982;2023-03-22T14:23:51;99339.44;;;13.59;62.02
36234;BME280;43467;50.890;5.982;2023-03-22T14:26:26;99340.81;;;13.65;62.16
36234;BME280;43467;50.890;5.982;2023-03-22T14:29:05;99340.13;;;13.74;62.10
36234;BME280;43467;50.890;5.982;2023-03-22T14:31:30;99326.44;;;13.67;62.28
36234;BME280;43467;50.890;5.982;2023-03-22T14:34:05;99335.84;;;13.60;62.61
36234;BME280;43467;50.890;5.982;2023-03-22T14:36:37;99328.72;;;13.61;62.53
36234;BME280;43467;50.890;5.982;2023-03-22T14:39:11;99334.31;;;13.69;62.91
36234;BME280;43467;50.890;5.982;2023-03-22T14:41:54;99343.91;;;13.59;62.58